Time;durP1;ratioP1;P1;durP2;ratioP2;P2;SDS_P1;SDS_P2;PMS_P1;PMS_P2;Temp;Humidity;BMP_temperature;BMP_pressure;BME280_temperature;BME280_humidity;BME280_pressure;Samples;Min_cycle;Max_cycle;Signal;HPM_P1;HPM_P2
2022/01/18 00:01:43;;;;;;;10.23;5.60;;;;;;;;;;790045;176;815783;-67
2022/01/18 00:04:09;;;;;;;8.83;3.37;;;;;;;;;;785529;176;920856;-66
2022/01/18 00:06:37;;;;;;;15.30;3.53;;;;;;;;;;781072;177;920322;-67
2022/01/18 00:09:01;;;;;;;19.10;4.10;;;;;;;;;;784915;177;920664;-66
2022/01/18 00:11:29;;;;;;;10.50;3.60;;;;;;;;;;769851;176;1018006;-66
2022/01/18 00:14:07;;;;;;;13.23;3.73;;;;;;;;;;781651;176;911491;-66
2022/01/18 00:16:36;;;;;;;9.13;3.97;;;;;;;;;;778099;177;1036343;-68
2022/01/18 00:18:55;;;;;;;13.57;3.70;;;;;;;;;;792144;175;913515;-66
2022/01/18 00:21:29;;;;;;;6.77;4.30;;;;;;;;;;780192;177;919113;-67
2022/01/18 00:23:51;;;;;;;11.37;5.33;;;;;;;;;;777705;177;918673;-67
2022/01/18 00:26:14;;;;;;;8.70;4.53;;;;;;;;;;791064;176;928435;-67
2022/01/18 00:28:41;;;;;;;8.70;4.40;;;;;;;;;;784587;177;919689;-67
2022/01/18 00:31:32;;;;;;;13.73;4.68;;;;;;;;;;782815;177;919093;-68
2022/01/18 00:33:57;;;;;;;11.97;4.00;;;;;;;;;;780223;176;918574;-67
2022/01/18 00:36:27;;;;;;;11.70;4.17;;;;;;;;;;779492;179;919294;-67
2022/01/18 00:38:48;;;;;;;5.40;3.27;;;;;;;;;;786939;176;919360;-67
2022/01/18 00:41:13;;;;;;;8.00;3.57;;;;;;;;;;782886;176;918246;-67
2022/01/18 00:43:39;;;;;;;12.20;4.37;;;;;;;;;;788936;176;919357;-67
2022/01/18 00:46:05;;;;;;;6.73;3.60;;;;;;;;;;783879;176;918809;-67
2022/01/18 00:48:34;;;;;;;8.93;3.30;;;;;;;;;;778522;179;918971;-67
2022/01/18 00:50:57;;;;;;;11.13;4.50;;;;;;;;;;784724;176;919763;-67
2022/01/18 00:53:25;;;;;;;11.48;4.93;;;;;;;;;;778414;176;986011;-67
2022/01/18 00:56:03;;;;;;;6.53;4.07;;;;;;;;;;785894;177;941740;-68
2022/01/18 00:58:15;;;;;;;11.17;4.70;;;;;;;;;;777554;177;918389;-67
2022/01/18 01:00:41;;;;;;;7.20;4.20;;;;;;;;;;778287;176;921039;-67
2022/01/18 01:03:07;;;;;;;8.47;4.10;;;;;;;;;;786979;176;1017262;-68
2022/01/18 01:05:32;;;;;;;14.73;4.00;;;;;;;;;;788812;176;914928;-68
2022/01/18 01:07:58;;;;;;;7.73;4.40;;;;;;;;;;778178;177;918821;-68
2022/01/18 01:10:24;;;;;;;11.70;4.63;;;;;;;;;;786435;176;918613;-68
2022/01/18 01:12:50;;;;;;;14.60;4.60;;;;;;;;;;779171;176;915180;-68
2022/01/18 01:15:18;;;;;;;7.40;3.70;;;;;;;;;;784445;177;918803;-67
2022/01/18 01:17:49;;;;;;;10.77;3.85;;;;;;;;;;789198;176;919548;-68
2022/01/18 01:33:24;;;;;;;7.57;4.55;;;;;;;;;;791134;177;919793;-66
2022/01/18 01:36:01;;;;;;;8.23;3.50;;;;;;;;;;781710;177;918050;-68
2022/01/18 01:43:26;;;;;;;15.00;4.10;;;;;;;;;;777665;179;914660;-68
2022/01/18 01:45:49;;;;;;;10.60;3.70;;;;;;;;;;780675;176;914891;-68
2022/01/18 01:48:14;;;;;;;11.80;3.87;;;;;;;;;;783246;177;913869;-68
2022/01/18 01:51:02;;;;;;;10.63;4.40;;;;;;;;;;783280;176;918581;-68
2022/01/18 01:53:20;;;;;;;7.73;3.50;;;;;;;;;;792859;173;915278;-68
2022/01/18 01:55:46;;;;;;;8.37;3.57;;;;;;;;;;789976;176;1019844;-69
2022/01/18 01:58:12;;;;;;;10.43;4.50;;;;;;;;;;781794;177;920397;-69
2022/01/18 02:00:41;;;;;;;19.87;5.20;;;;;;;;;;780152;180;920690;-69
2022/01/18 02:03:07;;;;;;;14.70;4.80;;;;;;;;;;779202;177;916742;-69
2022/01/18 02:05:32;;;;;;;16.35;3.85;;;;;;;;;;781965;176;913214;-69
2022/01/18 02:07:59;;;;;;;9.97;3.77;;;;;;;;;;789877;177;919256;-68
2022/01/18 02:10:24;;;;;;;20.43;5.73;;;;;;;;;;766976;179;934241;-69
2022/01/18 02:12:50;;;;;;;15.60;6.03;;;;;;;;;;778984;178;917981;-69
2022/01/18 02:15:18;;;;;;;19.30;5.40;;;;;;;;;;784616;176;915873;-68
2022/01/18 02:22:49;;;;;;;18.00;7.12;;;;;;;;;;779148;177;919641;-68
2022/01/18 02:25:15;;;;;;;22.60;10.15;;;;;;;;;;779396;179;918782;-67
2022/01/18 02:27:40;;;;;;;27.73;12.47;;;;;;;;;;789222;176;919648;-69
2022/01/18 02:30:07;;;;;;;37.23;12.80;;;;;;;;;;781442;176;919012;-68
2022/01/18 02:32:33;;;;;;;19.57;9.60;;;;;;;;;;793279;173;918923;-68
2022/01/18 02:34:58;;;;;;;19.40;7.03;;;;;;;;;;779546;177;918269;-69
2022/01/18 02:37:24;;;;;;;21.53;7.93;;;;;;;;;;783370;177;919984;-67
2022/01/18 02:39:50;;;;;;;17.53;8.60;;;;;;;;;;781154;177;918334;-68
2022/01/18 02:42:16;;;;;;;23.80;9.10;;;;;;;;;;786727;176;919389;-68
2022/01/18 02:44:42;;;;;;;16.77;7.17;;;;;;;;;;781591;176;918998;-69
2022/01/18 02:47:09;;;;;;;18.33;7.30;;;;;;;;;;773274;177;919036;-68
2022/01/18 02:49:36;;;;;;;24.87;8.10;;;;;;;;;;782214;177;918107;-68
2022/01/18 02:52:01;;;;;;;15.00;6.67;;;;;;;;;;778595;177;921474;-68
2022/01/18 02:54:27;;;;;;;17.50;7.53;;;;;;;;;;782146;176;919693;-68
2022/01/18 02:56:56;;;;;;;18.70;7.77;;;;;;;;;;783207;177;920487;-68
2022/01/18 02:59:29;;;;;;;16.60;7.13;;;;;;;;;;792030;176;920446;-69
2022/01/18 03:04:20;;;;;;;13.30;5.43;;;;;;;;;;746815;182;920515;-68
2022/01/18 03:06:46;;;;;;;12.30;5.63;;;;;;;;;;753276;184;919119;-68
2022/01/18 03:09:12;;;;;;;19.70;5.90;;;;;;;;;;792972;176;917765;-68
2022/01/18 03:11:37;;;;;;;17.35;6.80;;;;;;;;;;777746;176;918459;-69
2022/01/18 03:14:03;;;;;;;17.40;5.47;;;;;;;;;;779878;176;918698;-68
2022/01/18 03:16:29;;;;;;;12.53;5.90;;;;;;;;;;791280;174;919469;-68
2022/01/18 03:18:55;;;;;;;12.03;5.03;;;;;;;;;;781774;176;1021491;-68
2022/01/18 03:21:21;;;;;;;20.23;5.50;;;;;;;;;;777987;176;918889;-69
2022/01/18 03:23:52;;;;;;;19.63;5.57;;;;;;;;;;783213;177;922942;-69
2022/01/18 03:26:16;;;;;;;15.90;5.33;;;;;;;;;;783243;176;920751;-68
2022/01/18 03:28:39;;;;;;;14.98;6.00;;;;;;;;;;781176;177;919429;-69
2022/01/18 03:31:05;;;;;;;17.47;5.87;;;;;;;;;;783079;177;918023;-68
2022/01/18 03:33:31;;;;;;;23.40;5.90;;;;;;;;;;786317;176;917921;-68
2022/01/18 03:35:57;;;;;;;28.43;8.00;;;;;;;;;;781412;176;919361;-68
2022/01/18 03:38:29;;;;;;;23.07;6.47;;;;;;;;;;781131;177;920531;-68
2022/01/18 03:40:48;;;;;;;13.90;5.95;;;;;;;;;;785808;177;920290;-68
2022/01/18 03:43:14;;;;;;;15.30;6.73;;;;;;;;;;781139;177;918634;-68
2022/01/18 03:45:42;;;;;;;23.00;5.53;;;;;;;;;;779779;177;919066;-67
2022/01/18 03:48:09;;;;;;;15.80;4.87;;;;;;;;;;784898;176;920935;-68
2022/01/18 03:50:32;;;;;;;18.40;6.30;;;;;;;;;;777478;177;919372;-67
2022/01/18 03:52:58;;;;;;;18.00;6.57;;;;;;;;;;777805;176;918210;-67
2022/01/18 03:55:24;;;;;;;17.47;6.70;;;;;;;;;;780101;176;1017204;-67
2022/01/18 03:57:50;;;;;;;21.70;6.83;;;;;;;;;;781754;177;915323;-68
2022/01/18 04:00:16;;;;;;;19.47;6.73;;;;;;;;;;777195;177;915886;-67
2022/01/18 04:02:43;;;;;;;19.60;7.77;;;;;;;;;;781357;177;919034;-67
2022/01/18 04:05:09;;;;;;;18.00;7.10;;;;;;;;;;785635;176;918892;-67
2022/01/18 04:07:35;;;;;;;19.67;7.72;;;;;;;;;;783224;174;919127;-67
2022/01/18 04:10:00;;;;;;;15.83;7.57;;;;;;;;;;783279;176;919382;-67
2022/01/18 04:12:26;;;;;;;23.37;8.07;;;;;;;;;;788504;176;919001;-68
2022/01/18 04:14:54;;;;;;;23.27;7.63;;;;;;;;;;778019;176;919173;-67
2022/01/18 04:17:34;;;;;;;16.57;7.60;;;;;;;;;;779484;176;1021135;-67
2022/01/18 04:27:21;;;;;;;32.53;7.47;;;;;;;;;;780578;176;918882;-67
2022/01/18 04:29:46;;;;;;;27.75;7.95;;;;;;;;;;780005;176;924893;-67
2022/01/18 04:32:12;;;;;;;20.57;8.00;;;;;;;;;;786317;177;919532;-66
2022/01/18 04:34:40;;;;;;;26.67;7.77;;;;;;;;;;780477;176;919623;-67
2022/01/18 04:37:04;;;;;;;20.57;7.57;;;;;;;;;;779630;178;918925;-67
2022/01/18 04:39:36;;;;;;;20.70;7.93;;;;;;;;;;788447;177;918298;-67
2022/01/18 04:41:56;;;;;;;16.70;7.53;;;;;;;;;;778373;176;918400;-67
2022/01/18 04:49:25;;;;;;;22.43;9.70;;;;;;;;;;787315;177;918917;-67
2022/01/18 04:51:51;;;;;;;22.47;9.63;;;;;;;;;;779491;177;919924;-67
2022/01/18 04:54:17;;;;;;;21.00;10.37;;;;;;;;;;771347;176;918752;-67
2022/01/18 04:59:23;;;;;;;23.97;11.07;;;;;;;;;;772924;176;918724;-65
2022/01/18 05:01:50;;;;;;;36.23;11.90;;;;;;;;;;785013;176;918783;-67
2022/01/18 05:04:15;;;;;;;21.43;10.77;;;;;;;;;;783328;176;819603;-67
2022/01/18 05:06:42;;;;;;;27.00;11.55;;;;;;;;;;779756;176;918154;-68
2022/01/18 05:09:09;;;;;;;26.67;11.27;;;;;;;;;;785422;177;918427;-67
2022/01/18 05:11:38;;;;;;;27.10;11.17;;;;;;;;;;780240;177;918351;-67
2022/01/18 05:14:18;;;;;;;22.27;12.60;;;;;;;;;;777995;177;918884;-69
2022/01/18 05:16:51;;;;;;;18.20;9.47;;;;;;;;;;779871;177;919366;-66
2022/01/18 05:19:20;;;;;;;13.17;8.07;;;;;;;;;;785745;177;919210;-67
2022/01/18 05:22:58;;;;;;;14.80;8.20;;;;;;;;;;763082;182;905427;-68
2022/01/18 05:24:04;;;;;;;18.10;8.07;;;;;;;;;;788976;176;614873;-68
2022/01/18 05:26:30;;;;;;;16.87;9.23;;;;;;;;;;786945;176;630869;-68
2022/01/18 05:28:57;;;;;;;16.90;7.47;;;;;;;;;;789794;178;617870;-67
2022/01/18 05:31:22;;;;;;;15.40;8.43;;;;;;;;;;782646;177;628439;-67
2022/01/18 05:33:48;;;;;;;19.73;8.20;;;;;;;;;;779763;176;907405;-66
2022/01/18 05:36:15;;;;;;;16.47;7.93;;;;;;;;;;785775;177;919089;-66
2022/01/18 05:38:40;;;;;;;16.80;8.77;;;;;;;;;;782396;177;921068;-66
2022/01/18 05:41:06;;;;;;;21.53;10.50;;;;;;;;;;779652;176;934049;-67
2022/01/18 05:43:32;;;;;;;25.70;12.00;;;;;;;;;;783650;178;889743;-66
2022/01/18 05:46:01;;;;;;;24.83;9.90;;;;;;;;;;782611;176;915540;-67
2022/01/18 05:48:27;;;;;;;19.87;10.27;;;;;;;;;;780249;177;918739;-67
2022/01/18 05:50:59;;;;;;;18.03;9.33;;;;;;;;;;784471;177;626888;-67
2022/01/18 05:53:19;;;;;;;25.17;10.80;;;;;;;;;;783803;177;867714;-66
2022/01/18 05:55:45;;;;;;;20.90;10.70;;;;;;;;;;783812;177;909782;-66
2022/01/18 05:58:10;;;;;;;27.07;10.80;;;;;;;;;;784251;176;624741;-66
2022/01/18 06:00:38;;;;;;;24.77;12.20;;;;;;;;;;787681;177;631325;-67
2022/01/18 06:03:11;;;;;;;48.27;23.80;;;;;;;;;;771892;180;632205;-66
2022/01/18 06:08:00;;;;;;;19.10;11.80;;;;;;;;;;779695;177;914756;-66
2022/01/18 06:10:26;;;;;;;22.10;12.20;;;;;;;;;;784145;177;1016976;-65
2022/01/18 06:12:51;;;;;;;18.83;9.90;;;;;;;;;;778153;177;916726;-67
2022/01/18 06:15:17;;;;;;;26.77;10.60;;;;;;;;;;778255;177;919323;-67
2022/01/18 06:17:46;;;;;;;21.43;9.53;;;;;;;;;;783393;177;914861;-66
2022/01/18 06:20:12;;;;;;;27.10;10.90;;;;;;;;;;778924;177;1021028;-67
2022/01/18 06:22:38;;;;;;;22.63;12.00;;;;;;;;;;779734;177;929851;-66
2022/01/18 06:25:04;;;;;;;19.30;9.33;;;;;;;;;;779198;177;919543;-66
2022/01/18 06:27:30;;;;;;;26.33;9.40;;;;;;;;;;781766;177;918690;-65
2022/01/18 06:29:56;;;;;;;23.50;9.67;;;;;;;;;;777557;176;919053;-65
2022/01/18 06:32:22;;;;;;;27.33;10.70;;;;;;;;;;783964;178;918900;-66
2022/01/18 06:34:48;;;;;;;19.60;9.47;;;;;;;;;;772595;180;918882;-65
2022/01/18 06:37:13;;;;;;;25.30;9.48;;;;;;;;;;768326;180;919425;-65
2022/01/18 06:39:39;;;;;;;27.20;10.17;;;;;;;;;;785963;176;919647;-65
2022/01/18 06:42:06;;;;;;;23.77;10.30;;;;;;;;;;786840;177;919230;-66
2022/01/18 06:44:31;;;;;;;22.50;9.80;;;;;;;;;;785293;177;638177;-65
2022/01/18 06:46:57;;;;;;;32.60;12.23;;;;;;;;;;784880;177;619058;-65
2022/01/18 06:49:23;;;;;;;39.97;11.67;;;;;;;;;;787149;177;629810;-65
2022/01/18 06:51:49;;;;;;;26.47;11.90;;;;;;;;;;779869;179;919172;-67
2022/01/18 06:54:17;;;;;;;27.33;10.50;;;;;;;;;;775100;176;918850;-65
2022/01/18 06:56:45;;;;;;;33.70;11.52;;;;;;;;;;787442;175;918941;-66
2022/01/18 06:59:08;;;;;;;23.23;10.60;;;;;;;;;;770468;181;919120;-65
2022/01/18 07:01:34;;;;;;;27.45;12.25;;;;;;;;;;785919;176;919073;-64
2022/01/18 07:04:00;;;;;;;25.90;11.50;;;;;;;;;;782094;177;917976;-65
2022/01/18 07:06:26;;;;;;;30.13;11.60;;;;;;;;;;784256;177;918983;-65
2022/01/18 07:08:52;;;;;;;29.27;11.43;;;;;;;;;;776177;180;918704;-66
2022/01/18 07:11:17;;;;;;;28.47;11.70;;;;;;;;;;768724;180;919764;-65
2022/01/18 07:13:43;;;;;;;28.20;12.10;;;;;;;;;;768633;180;1019946;-65
2022/01/18 07:16:09;;;;;;;20.80;12.03;;;;;;;;;;764171;181;919096;-65
2022/01/18 07:18:35;;;;;;;24.30;10.83;;;;;;;;;;751702;184;919351;-65
2022/01/18 07:21:01;;;;;;;35.67;12.48;;;;;;;;;;742378;184;918929;-65
2022/01/18 07:23:27;;;;;;;46.97;12.80;;;;;;;;;;766192;183;918654;-65
2022/01/18 07:25:53;;;;;;;32.17;11.82;;;;;;;;;;771579;178;917679;-65
2022/01/18 07:28:19;;;;;;;27.87;12.73;;;;;;;;;;778008;177;1943412;-64
2022/01/18 07:30:44;;;;;;;34.97;12.27;;;;;;;;;;780473;177;917372;-65
2022/01/18 07:33:12;;;;;;;35.67;13.87;;;;;;;;;;785597;176;917334;-64
2022/01/18 07:35:36;;;;;;;39.40;13.40;;;;;;;;;;778400;177;919362;-64
2022/01/18 07:38:02;;;;;;;38.83;12.83;;;;;;;;;;784835;177;920540;-65
2022/01/18 07:40:28;;;;;;;28.63;12.90;;;;;;;;;;778099;176;919305;-65
2022/01/18 07:42:54;;;;;;;32.97;11.47;;;;;;;;;;783187;176;919133;-65
2022/01/18 07:45:20;;;;;;;35.23;14.10;;;;;;;;;;782381;177;1020517;-68
2022/01/18 07:47:46;;;;;;;25.40;12.37;;;;;;;;;;782161;176;919168;-64
2022/01/18 07:50:11;;;;;;;26.27;13.30;;;;;;;;;;787258;176;919259;-64
2022/01/18 07:52:37;;;;;;;29.57;11.33;;;;;;;;;;781341;176;919695;-64
2022/01/18 07:55:03;;;;;;;30.20;10.80;;;;;;;;;;787258;176;918467;-63
2022/01/18 07:57:29;;;;;;;32.10;15.23;;;;;;;;;;788924;177;919141;-63
2022/01/18 07:59:55;;;;;;;51.27;12.70;;;;;;;;;;773630;177;1021913;-62
2022/01/18 08:02:21;;;;;;;32.53;13.07;;;;;;;;;;789666;177;1020932;-63
2022/01/18 08:04:47;;;;;;;35.60;13.67;;;;;;;;;;781063;177;991559;-63
2022/01/18 08:07:12;;;;;;;33.10;15.20;;;;;;;;;;780794;176;918599;-63
2022/01/18 08:09:38;;;;;;;25.17;13.67;;;;;;;;;;779763;177;918580;-64
2022/01/18 08:12:05;;;;;;;39.53;15.00;;;;;;;;;;771544;179;942336;-64
2022/01/18 08:14:32;;;;;;;33.60;11.57;;;;;;;;;;777268;176;919001;-64
2022/01/18 08:17:00;;;;;;;36.83;15.00;;;;;;;;;;783487;176;1020622;-63
2022/01/18 08:19:28;;;;;;;35.17;14.17;;;;;;;;;;772071;181;919298;-62
2022/01/18 08:21:54;;;;;;;33.57;14.30;;;;;;;;;;780714;177;918964;-62
2022/01/18 08:24:20;;;;;;;29.80;13.50;;;;;;;;;;767859;176;918642;-62
2022/01/18 08:26:46;;;;;;;28.23;14.00;;;;;;;;;;787465;177;917625;-62
2022/01/18 08:29:12;;;;;;;40.23;11.20;;;;;;;;;;788332;177;919076;-62
2022/01/18 08:31:38;;;;;;;29.10;11.63;;;;;;;;;;778640;176;1020885;-62
2022/01/18 08:34:04;;;;;;;26.03;10.00;;;;;;;;;;777096;176;919416;-62
2022/01/18 08:36:30;;;;;;;24.50;9.87;;;;;;;;;;777447;181;920427;-61
2022/01/18 08:38:56;;;;;;;40.17;9.60;;;;;;;;;;778348;178;919401;-62
2022/01/18 08:41:22;;;;;;;14.17;7.80;;;;;;;;;;778756;178;919367;-63
2022/01/18 08:43:48;;;;;;;28.87;10.83;;;;;;;;;;783459;177;918045;-64
2022/01/18 08:46:13;;;;;;;18.23;9.10;;;;;;;;;;781868;177;918495;-64
2022/01/18 08:48:39;;;;;;;31.93;9.90;;;;;;;;;;780597;177;919798;-64
2022/01/18 08:51:05;;;;;;;17.63;10.20;;;;;;;;;;778221;177;922084;-64
2022/01/18 08:53:31;;;;;;;19.00;9.23;;;;;;;;;;778855;177;929954;-65
2022/01/18 08:55:57;;;;;;;19.90;9.40;;;;;;;;;;796459;173;932380;-65
2022/01/18 08:58:23;;;;;;;26.80;10.60;;;;;;;;;;788418;176;919109;-66
2022/01/18 09:00:48;;;;;;;15.57;7.30;;;;;;;;;;776559;180;918938;-67
2022/01/18 09:03:14;;;;;;;19.93;10.43;;;;;;;;;;781924;176;919829;-67
2022/01/18 09:05:43;;;;;;;25.80;13.15;;;;;;;;;;766892;181;921659;-71
2022/01/18 09:08:07;;;;;;;25.93;12.07;;;;;;;;;;781597;177;919377;-68
2022/01/18 09:10:32;;;;;;;24.70;8.83;;;;;;;;;;794342;175;917348;-69
2022/01/18 09:12:58;;;;;;;23.90;11.10;;;;;;;;;;782311;176;914339;-69
2022/01/18 09:15:25;;;;;;;16.27;7.80;;;;;;;;;;785003;177;919847;-70
2022/01/18 09:17:50;;;;;;;23.30;9.67;;;;;;;;;;779896;177;914815;-70
2022/01/18 09:20:16;;;;;;;25.43;9.93;;;;;;;;;;769446;180;919004;-70
2022/01/18 09:22:42;;;;;;;23.33;8.90;;;;;;;;;;781601;176;918085;-70
2022/01/18 09:25:09;;;;;;;22.23;7.60;;;;;;;;;;784791;177;919753;-70
2022/01/18 09:27:35;;;;;;;13.07;6.80;;;;;;;;;;779453;176;919358;-68
2022/01/18 09:30:01;;;;;;;12.97;5.60;;;;;;;;;;781529;176;926634;-70
2022/01/18 09:32:27;;;;;;;17.40;9.00;;;;;;;;;;786400;177;919600;-69
2022/01/18 09:34:54;;;;;;;18.57;5.90;;;;;;;;;;772987;177;918745;-69
2022/01/18 09:37:20;;;;;;;11.20;5.40;;;;;;;;;;769960;179;918890;-68
2022/01/18 09:39:46;;;;;;;17.93;6.30;;;;;;;;;;780994;177;1020372;-67
2022/01/18 09:42:11;;;;;;;25.23;5.90;;;;;;;;;;788416;176;918515;-68
2022/01/18 09:44:37;;;;;;;20.57;5.97;;;;;;;;;;780655;176;921804;-68
2022/01/18 09:47:04;;;;;;;15.30;6.25;;;;;;;;;;778456;177;918658;-68
2022/01/18 09:49:30;;;;;;;11.70;5.87;;;;;;;;;;792612;177;918331;-67
2022/01/18 09:51:55;;;;;;;15.40;5.90;;;;;;;;;;778989;176;918994;-68
2022/01/18 09:54:21;;;;;;;17.60;6.67;;;;;;;;;;784239;177;919570;-66
2022/01/18 09:56:47;;;;;;;11.83;5.20;;;;;;;;;;772093;179;919014;-66
2022/01/18 09:59:13;;;;;;;8.70;5.70;;;;;;;;;;750261;184;920307;-67
2022/01/18 10:01:39;;;;;;;17.50;7.93;;;;;;;;;;784842;177;919358;-66
2022/01/18 10:04:13;;;;;;;13.45;5.95;;;;;;;;;;784846;177;918308;-66
2022/01/18 10:06:39;;;;;;;13.63;6.47;;;;;;;;;;786308;176;918635;-65
2022/01/18 10:09:04;;;;;;;17.43;5.13;;;;;;;;;;782894;177;918651;-65
2022/01/18 10:11:30;;;;;;;19.43;7.27;;;;;;;;;;781109;176;919671;-65
2022/01/18 10:13:56;;;;;;;17.17;4.97;;;;;;;;;;789157;176;919010;-65
2022/01/18 10:16:23;;;;;;;14.63;5.82;;;;;;;;;;785237;176;919605;-64
2022/01/18 10:18:50;;;;;;;12.40;5.60;;;;;;;;;;790421;176;987668;-64
2022/01/18 10:21:33;;;;;;;11.17;6.03;;;;;;;;;;774948;178;918917;-68
2022/01/18 10:24:02;;;;;;;12.20;5.40;;;;;;;;;;777207;176;918902;-63
2022/01/18 10:26:28;;;;;;;15.13;6.10;;;;;;;;;;779211;177;948654;-64
2022/01/18 10:28:58;;;;;;;12.80;6.47;;;;;;;;;;784430;176;920573;-64
2022/01/18 10:31:25;;;;;;;13.77;6.20;;;;;;;;;;779807;176;918785;-64
2022/01/18 10:34:10;;;;;;;11.10;6.50;;;;;;;;;;778695;177;919165;-63
2022/01/18 10:36:18;;;;;;;12.40;5.10;;;;;;;;;;783292;176;918349;-64
2022/01/18 10:38:43;;;;;;;14.43;5.87;;;;;;;;;;781589;176;918430;-64
2022/01/18 10:41:14;;;;;;;7.55;4.35;;;;;;;;;;780171;177;918865;-63
2022/01/18 10:43:40;;;;;;;16.63;5.00;;;;;;;;;;785816;177;918951;-63
2022/01/18 10:46:11;;;;;;;12.90;4.95;;;;;;;;;;781680;176;920476;-63
2022/01/18 10:48:52;;;;;;;16.23;4.50;;;;;;;;;;780415;177;918076;-62
2022/01/18 10:51:23;;;;;;;16.83;5.97;;;;;;;;;;774685;177;1019121;-63
2022/01/18 10:53:57;;;;;;;11.20;5.40;;;;;;;;;;781109;176;916865;-64
2022/01/18 10:56:23;;;;;;;11.40;5.62;;;;;;;;;;785600;177;916149;-60
2022/01/18 10:58:52;;;;;;;10.13;4.27;;;;;;;;;;773589;180;920126;-61
2022/01/18 11:01:16;;;;;;;13.60;5.60;;;;;;;;;;771936;177;919835;-62
2022/01/18 11:03:41;;;;;;;19.93;4.97;;;;;;;;;;771971;179;1124247;-62
2022/01/18 11:06:08;;;;;;;10.33;4.40;;;;;;;;;;778771;179;919956;-62
2022/01/18 11:08:33;;;;;;;22.63;6.83;;;;;;;;;;784077;177;920225;-62
2022/01/18 11:10:59;;;;;;;22.07;6.10;;;;;;;;;;778339;178;919344;-62
2022/01/18 11:13:32;;;;;;;17.93;4.87;;;;;;;;;;785742;177;919070;-62
2022/01/18 11:16:01;;;;;;;12.47;5.37;;;;;;;;;;792203;175;918970;-62
2022/01/18 11:18:25;;;;;;;20.17;5.67;;;;;;;;;;781794;175;925398;-62
2022/01/18 11:20:43;;;;;;;10.60;6.03;;;;;;;;;;788258;177;928115;-62
2022/01/18 11:23:08;;;;;;;15.67;6.17;;;;;;;;;;784173;176;919890;-62
2022/01/18 11:25:36;;;;;;;15.77;7.70;;;;;;;;;;778770;176;921855;-62
2022/01/18 11:28:01;;;;;;;18.13;7.23;;;;;;;;;;770318;179;919069;-62
2022/01/18 11:30:26;;;;;;;22.07;6.17;;;;;;;;;;779057;179;637129;-62
2022/01/18 11:32:52;;;;;;;14.20;5.57;;;;;;;;;;773249;180;915172;-62
2022/01/18 11:35:18;;;;;;;27.07;6.70;;;;;;;;;;761982;184;811164;-62
2022/01/18 11:37:47;;;;;;;12.30;4.40;;;;;;;;;;785208;177;918933;-62
2022/01/18 11:40:13;;;;;;;17.63;6.37;;;;;;;;;;783437;176;981484;-62
2022/01/18 11:42:46;;;;;;;18.80;6.18;;;;;;;;;;786485;175;921080;-62
2022/01/18 11:45:14;;;;;;;22.83;5.67;;;;;;;;;;780743;177;920373;-62
2022/01/18 11:47:40;;;;;;;19.53;7.03;;;;;;;;;;787535;176;921051;-62
2022/01/18 11:50:06;;;;;;;13.57;5.17;;;;;;;;;;778333;177;1020009;-62
2022/01/18 11:52:37;;;;;;;19.67;5.72;;;;;;;;;;776743;180;918592;-62
2022/01/18 11:55:00;;;;;;;14.30;5.10;;;;;;;;;;776743;179;918966;-62
2022/01/18 11:57:39;;;;;;;14.30;6.47;;;;;;;;;;787978;176;917754;-62
2022/01/18 12:00:20;;;;;;;10.93;5.20;;;;;;;;;;779043;177;919650;-62
2022/01/18 12:02:48;;;;;;;11.32;5.95;;;;;;;;;;790779;174;915668;-62
2022/01/18 12:05:14;;;;;;;15.60;5.50;;;;;;;;;;778523;176;1022326;-63
2022/01/18 12:07:55;;;;;;;12.77;6.80;;;;;;;;;;777736;177;919810;-62
2022/01/18 12:10:26;;;;;;;13.10;5.70;;;;;;;;;;781909;177;918785;-62
2022/01/18 12:12:52;;;;;;;20.87;7.47;;;;;;;;;;786805;177;919075;-62
2022/01/18 12:15:33;;;;;;;17.00;5.83;;;;;;;;;;769533;179;1021036;-62
2022/01/18 12:18:01;;;;;;;13.90;6.07;;;;;;;;;;784143;177;918321;-62
2022/01/18 12:20:33;;;;;;;25.83;8.23;;;;;;;;;;781008;177;918686;-62
2022/01/18 12:22:59;;;;;;;24.13;7.10;;;;;;;;;;780587;177;919076;-62
2022/01/18 12:25:26;;;;;;;21.70;6.80;;;;;;;;;;791099;177;919345;-62
2022/01/18 12:27:55;;;;;;;16.97;6.10;;;;;;;;;;777225;177;918713;-62
2022/01/18 12:32:56;;;;;;;26.10;8.53;;;;;;;;;;785899;176;1004279;-62
2022/01/18 12:35:16;;;;;;;9.93;5.53;;;;;;;;;;780067;176;919282;-64
2022/01/18 12:37:42;;;;;;;16.67;6.70;;;;;;;;;;783920;176;1022494;-62
2022/01/18 12:40:08;;;;;;;19.15;6.80;;;;;;;;;;781602;176;919751;-62
2022/01/18 12:45:16;;;;;;;12.00;6.30;;;;;;;;;;780333;176;919326;-62
2022/01/18 12:47:43;;;;;;;15.40;6.97;;;;;;;;;;779121;176;920050;-62
2022/01/18 12:50:09;;;;;;;18.00;7.83;;;;;;;;;;779681;177;919535;-62
2022/01/18 12:52:40;;;;;;;15.50;6.07;;;;;;;;;;787158;176;919354;-61
2022/01/18 12:55:07;;;;;;;18.43;7.23;;;;;;;;;;782609;176;919531;-61
2022/01/18 12:57:33;;;;;;;14.48;6.37;;;;;;;;;;779509;176;920835;-62
2022/01/18 12:59:59;;;;;;;18.07;6.03;;;;;;;;;;781020;176;918786;-62
2022/01/18 13:02:25;;;;;;;15.00;6.43;;;;;;;;;;782813;177;919011;-62
2022/01/18 13:04:55;;;;;;;17.40;7.77;;;;;;;;;;786223;176;919211;-63
2022/01/18 13:07:21;;;;;;;18.47;6.30;;;;;;;;;;780781;177;920367;-62
2022/01/18 13:09:52;;;;;;;22.80;6.60;;;;;;;;;;786576;177;918767;-62
2022/01/18 13:12:18;;;;;;;33.00;8.60;;;;;;;;;;793057;176;919208;-62
2022/01/18 13:14:51;;;;;;;28.00;7.23;;;;;;;;;;782387;176;918604;-62
2022/01/18 13:25:04;;;;;;;18.40;6.73;;;;;;;;;;778340;177;1020608;-62
2022/01/18 13:27:24;;;;;;;13.20;7.60;;;;;;;;;;767456;179;918780;-63
2022/01/18 13:29:44;;;;;;;13.43;6.90;;;;;;;;;;781586;177;919253;-63
2022/01/18 13:32:14;;;;;;;22.13;7.23;;;;;;;;;;782643;177;919307;-62
2022/01/18 13:34:36;;;;;;;15.33;6.70;;;;;;;;;;780124;177;920215;-63
2022/01/18 13:37:04;;;;;;;17.43;6.60;;;;;;;;;;778099;176;918573;-63
2022/01/18 13:39:31;;;;;;;14.03;7.53;;;;;;;;;;783626;177;918090;-62
2022/01/18 13:41:54;;;;;;;22.60;8.77;;;;;;;;;;785240;176;919057;-63
2022/01/18 13:44:20;;;;;;;13.90;6.53;;;;;;;;;;783033;176;1021345;-62
2022/01/18 13:46:46;;;;;;;13.90;7.20;;;;;;;;;;782321;176;920201;-62
2022/01/18 13:49:13;;;;;;;22.20;8.30;;;;;;;;;;787272;176;903695;-62
2022/01/18 13:51:38;;;;;;;17.00;7.73;;;;;;;;;;781091;177;919030;-62
2022/01/18 13:54:06;;;;;;;19.37;8.47;;;;;;;;;;780008;177;918872;-63
2022/01/18 13:56:30;;;;;;;23.33;7.97;;;;;;;;;;777120;179;919409;-62
2022/01/18 13:58:58;;;;;;;16.80;7.20;;;;;;;;;;775978;176;918570;-62
2022/01/18 14:01:26;;;;;;;18.93;9.50;;;;;;;;;;786023;176;1021191;-62
2022/01/18 14:03:50;;;;;;;23.67;8.20;;;;;;;;;;787023;176;918966;-62
2022/01/18 14:06:17;;;;;;;33.57;13.43;;;;;;;;;;773960;177;919384;-62
2022/01/18 14:08:45;;;;;;;27.13;9.23;;;;;;;;;;776726;176;920690;-64
2022/01/18 14:11:09;;;;;;;21.33;8.20;;;;;;;;;;784113;176;919194;-61
2022/01/18 14:13:36;;;;;;;25.90;8.73;;;;;;;;;;786361;177;918887;-64
2022/01/18 14:16:02;;;;;;;21.80;10.33;;;;;;;;;;778909;176;918168;-61
2022/01/18 14:18:28;;;;;;;22.17;8.37;;;;;;;;;;777049;177;918377;-62
2022/01/18 14:20:54;;;;;;;22.47;9.97;;;;;;;;;;786352;176;919743;-62
2022/01/18 14:23:20;;;;;;;22.13;9.03;;;;;;;;;;778026;176;918742;-62
2022/01/18 14:25:46;;;;;;;22.23;10.30;;;;;;;;;;774043;176;918268;-62
2022/01/18 14:28:11;;;;;;;20.87;9.07;;;;;;;;;;769381;181;920271;-62
2022/01/18 14:30:37;;;;;;;19.10;8.30;;;;;;;;;;779294;176;956860;-62
2022/01/18 14:33:04;;;;;;;19.97;8.23;;;;;;;;;;781040;177;919194;-63
2022/01/18 14:35:29;;;;;;;25.07;8.17;;;;;;;;;;784648;176;635922;-63
2022/01/18 14:37:55;;;;;;;19.30;8.77;;;;;;;;;;775414;177;618032;-63
2022/01/18 14:40:21;;;;;;;20.23;8.07;;;;;;;;;;785611;176;1123837;-64
2022/01/18 14:42:51;;;;;;;15.60;8.10;;;;;;;;;;784879;177;921667;-62
2022/01/18 14:47:54;;;;;;;19.50;7.80;;;;;;;;;;782920;177;918884;-62
2022/01/18 14:50:20;;;;;;;15.40;8.40;;;;;;;;;;781346;176;919033;-63
2022/01/18 14:52:48;;;;;;;34.23;7.23;;;;;;;;;;781691;176;919144;-62
2022/01/18 14:55:12;;;;;;;24.67;9.20;;;;;;;;;;786827;176;948958;-63
2022/01/18 14:57:38;;;;;;;21.73;9.13;;;;;;;;;;777866;176;919349;-63
2022/01/18 15:00:04;;;;;;;27.23;9.53;;;;;;;;;;781645;176;918852;-63
2022/01/18 15:02:30;;;;;;;24.37;13.10;;;;;;;;;;780186;177;920587;-63
2022/01/18 15:04:56;;;;;;;25.50;12.97;;;;;;;;;;762986;183;918740;-62
2022/01/18 15:07:22;;;;;;;31.40;14.80;;;;;;;;;;777887;176;919770;-66
2022/01/18 15:09:48;;;;;;;51.83;24.60;;;;;;;;;;779280;176;920657;-62